sensor_id;sensor_type;location;lat;lon;timestamp;temperature;humidity
31515;DHT22;40526;52.088;17.020;2024-01-30T00:07:07;-0.30;99.90
31515;DHT22;40526;52.088;17.020;2024-01-30T00:17:11;-0.30;99.90
31515;DHT22;40526;52.088;17.020;2024-01-30T00:22:15;-0.40;99.90
31515;DHT22;40526;52.088;17.020;2024-01-30T00:37:24;-0.30;99.90
31515;DHT22;40526;52.088;17.020;2024-01-30T00:52:35;-0.40;99.90
31515;DHT22;40526;52.088;17.020;2024-01-30T01:02:40;-0.50;99.90
31515;DHT22;40526;52.088;17.020;2024-01-30T01:07:43;-0.50;99.90
31515;DHT22;40526;52.088;17.020;2024-01-30T01:12:46;-0.50;99.90
31515;DHT22;40526;52.088;17.020;2024-01-30T01:17:48;-0.60;99.90
31515;DHT22;40526;52.088;17.020;2024-01-30T01:22:51;-0.50;99.90
31515;DHT22;40526;52.088;17.020;2024-01-30T01:32:57;-0.60;99.90
31515;DHT22;40526;52.088;17.020;2024-01-30T01:38:03;-0.60;99.90
31515;DHT22;40526;52.088;17.020;2024-01-30T01:43:06;-0.50;99.90
31515;DHT22;40526;52.088;17.020;2024-01-30T01:48:08;-0.60;99.90
31515;DHT22;40526;52.088;17.020;2024-01-30T01:53:13;-0.60;99.90
31515;DHT22;40526;52.088;17.020;2024-01-30T02:03:18;-0.60;99.90
31515;DHT22;40526;52.088;17.020;2024-01-30T02:08:23;-0.60;99.90
31515;DHT22;40526;52.088;17.020;2024-01-30T02:13:26;-0.70;99.90
31515;DHT22;40526;52.088;17.020;2024-01-30T02:23:32;-0.80;99.90
31515;DHT22;40526;52.088;17.020;2024-01-30T02:38:41;-0.90;99.90
31515;DHT22;40526;52.088;17.020;2024-01-30T02:53:49;-1.10;99.90
31515;DHT22;40526;52.088;17.020;2024-01-30T02:58:51;-1.00;99.90
31515;DHT22;40526;52.088;17.020;2024-01-30T03:08:56;-1.10;99.90
31515;DHT22;40526;52.088;17.020;2024-01-30T03:13:58;-1.00;99.90
31515;DHT22;40526;52.088;17.020;2024-01-30T03:19:00;-1.00;99.90
31515;DHT22;40526;52.088;17.020;2024-01-30T03:24:05;-1.00;99.90
31515;DHT22;40526;52.088;17.020;2024-01-30T03:39:13;-1.00;99.90
31515;DHT22;40526;52.088;17.020;2024-01-30T03:54:21;-1.10;99.90
31515;DHT22;40526;52.088;17.020;2024-01-30T04:09:29;-1.10;99.90
31515;DHT22;40526;52.088;17.020;2024-01-30T04:19:37;-1.20;99.90
31515;DHT22;40526;52.088;17.020;2024-01-30T04:24:40;-1.20;99.90
31515;DHT22;40526;52.088;17.020;2024-01-30T04:34:45;-1.20;99.90
31515;DHT22;40526;52.088;17.020;2024-01-30T04:39:48;-1.10;99.90
31515;DHT22;40526;52.088;17.020;2024-01-30T04:44:50;-1.10;99.90
31515;DHT22;40526;52.088;17.020;2024-01-30T04:54:56;-0.90;99.90
31515;DHT22;40526;52.088;17.020;2024-01-30T04:59:58;-1.00;99.90
31515;DHT22;40526;52.088;17.020;2024-01-30T05:10:05;-1.00;99.90
31515;DHT22;40526;52.088;17.020;2024-01-30T05:15:08;-0.50;99.90
31515;DHT22;40526;52.088;17.020;2024-01-30T05:20:11;-0.90;99.90
31515;DHT22;40526;52.088;17.020;2024-01-30T05:25:15;-0.90;99.90
31515;DHT22;40526;52.088;17.020;2024-01-30T05:35:20;-1.00;99.90
31515;DHT22;40526;52.088;17.020;2024-01-30T05:40:24;-1.00;99.90
31515;DHT22;40526;52.088;17.020;2024-01-30T05:55:34;-1.10;99.90
31515;DHT22;40526;52.088;17.020;2024-01-30T06:05:38;-1.10;99.90
31515;DHT22;40526;52.088;17.020;2024-01-30T06:10:41;-1.40;99.90
31515;DHT22;40526;52.088;17.020;2024-01-30T06:20:46;-1.40;99.90
31515;DHT22;40526;52.088;17.020;2024-01-30T06:25:49;-1.40;99.90
31515;DHT22;40526;52.088;17.020;2024-01-30T06:30:51;-1.30;99.90
31515;DHT22;40526;52.088;17.020;2024-01-30T06:40:57;-1.20;99.90
31515;DHT22;40526;52.088;17.020;2024-01-30T06:45:59;-1.00;99.90
31515;DHT22;40526;52.088;17.020;2024-01-30T06:51:01;-1.00;99.90
31515;DHT22;40526;52.088;17.020;2024-01-30T06:56:05;-0.80;99.90
31515;DHT22;40526;52.088;17.020;2024-01-30T07:01:08;-0.60;99.90
31515;DHT22;40526;52.088;17.020;2024-01-30T07:06:10;-0.40;99.90
31515;DHT22;40526;52.088;17.020;2024-01-30T07:11:19;1.00;99.90
31515;DHT22;40526;52.088;17.020;2024-01-30T07:16:22;1.90;99.90
31515;DHT22;40526;52.088;17.020;2024-01-30T07:21:24;0.50;99.90
31515;DHT22;40526;52.088;17.020;2024-01-30T07:26:30;2.50;99.90
31515;DHT22;40526;52.088;17.020;2024-01-30T07:31:32;1.10;99.90
31515;DHT22;40526;52.088;17.020;2024-01-30T07:36:34;1.40;99.90
31515;DHT22;40526;52.088;17.020;2024-01-30T07:41:38;1.60;99.90
31515;DHT22;40526;52.088;17.020;2024-01-30T07:51:42;2.10;99.90
31515;DHT22;40526;52.088;17.020;2024-01-30T07:56:47;2.90;99.90
31515;DHT22;40526;52.088;17.020;2024-01-30T08:01:49;2.90;99.90
31515;DHT22;40526;52.088;17.020;2024-01-30T08:06:51;2.80;99.90
31515;DHT22;40526;52.088;17.020;2024-01-30T08:11:54;3.00;99.90
31515;DHT22;40526;52.088;17.020;2024-01-30T08:16:56;3.30;99.90
31515;DHT22;40526;52.088;17.020;2024-01-30T08:21:58;4.80;99.90
31515;DHT22;40526;52.088;17.020;2024-01-30T08:27:02;3.60;99.90
31515;DHT22;40526;52.088;17.020;2024-01-30T08:32:06;3.80;99.90
31515;DHT22;40526;52.088;17.020;2024-01-30T08:37:08;4.00;99.90
31515;DHT22;40526;52.088;17.020;2024-01-30T08:42:11;5.80;99.90
31515;DHT22;40526;52.088;17.020;2024-01-30T08:47:13;5.30;99.90
31515;DHT22;40526;52.088;17.020;2024-01-30T08:52:17;5.70;99.90
31515;DHT22;40526;52.088;17.020;2024-01-30T08:57:20;5.80;99.90
31515;DHT22;40526;52.088;17.020;2024-01-30T09:02:22;5.80;99.90
31515;DHT22;40526;52.088;17.020;2024-01-30T09:07:24;5.70;99.90
31515;DHT22;40526;52.088;17.020;2024-01-30T09:12:28;5.00;99.90
31515;DHT22;40526;52.088;17.020;2024-01-30T09:17:30;5.10;99.90
31515;DHT22;40526;52.088;17.020;2024-01-30T09:22:32;5.10;99.90
31515;DHT22;40526;52.088;17.020;2024-01-30T09:27:35;5.10;99.90
31515;DHT22;40526;52.088;17.020;2024-01-30T09:32:39;5.30;99.90
31515;DHT22;40526;52.088;17.020;2024-01-30T09:42:46;5.40;99.90
31515;DHT22;40526;52.088;17.020;2024-01-30T09:47:49;5.50;99.90
31515;DHT22;40526;52.088;17.020;2024-01-30T09:57:55;5.60;99.90
31515;DHT22;40526;52.088;17.020;2024-01-30T10:02:57;5.70;99.90
31515;DHT22;40526;52.088;17.020;2024-01-30T10:13:02;5.90;99.90
31515;DHT22;40526;52.088;17.020;2024-01-30T10:23:09;5.70;99.90
31515;DHT22;40526;52.088;17.020;2024-01-30T10:33:14;5.70;99.90
31515;DHT22;40526;52.088;17.020;2024-01-30T10:38:19;5.60;99.90
31515;DHT22;40526;52.088;17.020;2024-01-30T10:43:24;5.70;99.90
31515;DHT22;40526;52.088;17.020;2024-01-30T10:48:33;5.60;99.90
31515;DHT22;40526;52.088;17.020;2024-01-30T10:53:41;5.60;99.90
31515;DHT22;40526;52.088;17.020;2024-01-30T10:58:47;5.40;99.90
31515;DHT22;40526;52.088;17.020;2024-01-30T11:03:50;5.60;99.90
31515;DHT22;40526;52.088;17.020;2024-01-30T11:09:02;5.80;99.90
31515;DHT22;40526;52.088;17.020;2024-01-30T11:14:10;6.00;99.90
31515;DHT22;40526;52.088;17.020;2024-01-30T11:29:18;6.10;99.90
31515;DHT22;40526;52.088;17.020;2024-01-30T11:34:21;6.10;99.90
31515;DHT22;40526;52.088;17.020;2024-01-30T11:39:24;6.20;99.90
31515;DHT22;40526;52.088;17.020;2024-01-30T11:44:28;6.10;99.90
31515;DHT22;40526;52.088;17.020;2024-01-30T11:59:36;6.50;99.90
31515;DHT22;40526;52.088;17.020;2024-01-30T12:09:40;6.90;99.90
31515;DHT22;40526;52.088;17.020;2024-01-30T12:14:44;7.20;99.90
31515;DHT22;40526;52.088;17.020;2024-01-30T12:24:49;7.30;99.90
31515;DHT22;40526;52.088;17.020;2024-01-30T12:34:59;7.50;99.90
31515;DHT22;40526;52.088;17.020;2024-01-30T12:40:01;7.50;99.90
31515;DHT22;40526;52.088;17.020;2024-01-30T12:45:05;10.60;99.90
31515;DHT22;40526;52.088;17.020;2024-01-30T12:55:10;7.50;99.90
31515;DHT22;40526;52.088;17.020;2024-01-30T13:00:14;7.30;99.90
31515;DHT22;40526;52.088;17.020;2024-01-30T13:10:20;7.50;99.90
31515;DHT22;40526;52.088;17.020;2024-01-30T13:15:23;7.50;99.90
31515;DHT22;40526;52.088;17.020;2024-01-30T13:20:25;7.60;99.90
31515;DHT22;40526;52.088;17.020;2024-01-30T13:25:27;7.60;99.90
31515;DHT22;40526;52.088;17.020;2024-01-30T13:30:31;7.50;99.90
31515;DHT22;40526;52.088;17.020;2024-01-30T13:45:39;7.10;99.90
31515;DHT22;40526;52.088;17.020;2024-01-30T13:50:42;7.10;99.90
31515;DHT22;40526;52.088;17.020;2024-01-30T13:55:44;7.10;99.90
31515;DHT22;40526;52.088;17.020;2024-01-30T14:00:47;7.10;99.90
31515;DHT22;40526;52.088;17.020;2024-01-30T14:31:04;6.40;99.90
31515;DHT22;40526;52.088;17.020;2024-01-30T14:46:12;5.80;99.90
31515;DHT22;40526;52.088;17.020;2024-01-30T14:51:14;5.60;99.90
31515;DHT22;40526;52.088;17.020;2024-01-30T15:01:20;5.40;99.90
31515;DHT22;40526;52.088;17.020;2024-01-30T15:06:22;5.30;99.90
31515;DHT22;40526;52.088;17.020;2024-01-30T15:11:25;5.00;99.90
31515;DHT22;40526;52.088;17.020;2024-01-30T15:16:29;4.90;99.90
31515;DHT22;40526;52.088;17.020;2024-01-30T15:21:32;4.90;99.90
31515;DHT22;40526;52.088;17.020;2024-01-30T15:26:34;4.70;99.90
31515;DHT22;40526;52.088;17.020;2024-01-30T15:31:38;4.70;99.90
31515;DHT22;40526;52.088;17.020;2024-01-30T15:36:40;4.50;99.90
31515;DHT22;40526;52.088;17.020;2024-01-30T15:41:43;4.40;99.90
31515;DHT22;40526;52.088;17.020;2024-01-30T15:46:46;4.20;99.90
31515;DHT22;40526;52.088;17.020;2024-01-30T15:51:48;4.00;99.90
31515;DHT22;40526;52.088;17.020;2024-01-30T16:01:53;3.80;99.90
31515;DHT22;40526;52.088;17.020;2024-01-30T16:06:55;3.70;99.90
31515;DHT22;40526;52.088;17.020;2024-01-30T16:17:01;3.50;99.90
31515;DHT22;40526;52.088;17.020;2024-01-30T16:22:03;3.40;99.90
31515;DHT22;40526;52.088;17.020;2024-01-30T16:32:08;3.30;99.90
31515;DHT22;40526;52.088;17.020;2024-01-30T16:42:13;3.20;99.90
31515;DHT22;40526;52.088;17.020;2024-01-30T16:47:16;3.10;99.90
31515;DHT22;40526;52.088;17.020;2024-01-30T17:02:26;3.10;99.90
31515;DHT22;40526;52.088;17.020;2024-01-30T17:12:34;2.70;99.90
31515;DHT22;40526;52.088;17.020;2024-01-30T17:17:38;2.60;99.90
31515;DHT22;40526;52.088;17.020;2024-01-30T17:22:40;2.70;99.90
31515;DHT22;40526;52.088;17.020;2024-01-30T17:27:42;2.70;99.90
31515;DHT22;40526;52.088;17.020;2024-01-30T17:32:46;2.80;99.90
31515;DHT22;40526;52.088;17.020;2024-01-30T17:47:55;3.00;99.90
31515;DHT22;40526;52.088;17.020;2024-01-30T17:57:59;3.20;99.90
31515;DHT22;40526;52.088;17.020;2024-01-30T18:03:04;3.10;99.90
31515;DHT22;40526;52.088;17.020;2024-01-30T18:18:15;3.10;99.90
31515;DHT22;40526;52.088;17.020;2024-01-30T18:23:18;3.20;99.90
31515;DHT22;40526;52.088;17.020;2024-01-30T18:28:21;3.10;99.90
31515;DHT22;40526;52.088;17.020;2024-01-30T18:33:24;3.00;99.90
31515;DHT22;40526;52.088;17.020;2024-01-30T18:38:27;0.50;99.90
31515;DHT22;40526;52.088;17.020;2024-01-30T18:43:30;3.00;99.90
31515;DHT22;40526;52.088;17.020;2024-01-30T18:48:35;3.00;99.90
31515;DHT22;40526;52.088;17.020;2024-01-30T18:53:37;3.20;99.90
31515;DHT22;40526;52.088;17.020;2024-01-30T19:03:43;3.30;99.90
31515;DHT22;40526;52.088;17.020;2024-01-30T19:08:45;3.30;99.90
31515;DHT22;40526;52.088;17.020;2024-01-30T19:18:50;3.30;99.90
31515;DHT22;40526;52.088;17.020;2024-01-30T19:23:53;3.40;99.90
31515;DHT22;40526;52.088;17.020;2024-01-30T19:28:59;3.40;99.90
31515;DHT22;40526;52.088;17.020;2024-01-30T19:34:03;3.40;99.90
31515;DHT22;40526;52.088;17.020;2024-01-30T19:39:05;3.40;99.90
31515;DHT22;40526;52.088;17.020;2024-01-30T19:44:12;3.30;99.90
31515;DHT22;40526;52.088;17.020;2024-01-30T19:49:15;3.30;99.90
31515;DHT22;40526;52.088;17.020;2024-01-30T20:04:26;3.20;99.90
31515;DHT22;40526;52.088;17.020;2024-01-30T20:09:28;3.20;99.90
31515;DHT22;40526;52.088;17.020;2024-01-30T20:14:30;3.20;99.90
31515;DHT22;40526;52.088;17.020;2024-01-30T20:19:33;3.10;99.90
31515;DHT22;40526;52.088;17.020;2024-01-30T20:24:35;2.80;99.90
31515;DHT22;40526;52.088;17.020;2024-01-30T20:29:37;2.60;99.90
31515;DHT22;40526;52.088;17.020;2024-01-30T20:34:41;2.50;99.90
31515;DHT22;40526;52.088;17.020;2024-01-30T20:39:43;2.40;99.90
31515;DHT22;40526;52.088;17.020;2024-01-30T20:44:45;2.40;99.90
31515;DHT22;40526;52.088;17.020;2024-01-30T20:49:49;2.30;99.90
31515;DHT22;40526;52.088;17.020;2024-01-30T20:54:51;2.30;99.90
31515;DHT22;40526;52.088;17.020;2024-01-30T21:04:57;2.30;99.90
31515;DHT22;40526;52.088;17.020;2024-01-30T21:15:01;2.40;99.90
31515;DHT22;40526;52.088;17.020;2024-01-30T21:20:07;2.50;99.90
31515;DHT22;40526;52.088;17.020;2024-01-30T21:30:12;2.50;99.90
31515;DHT22;40526;52.088;17.020;2024-01-30T21:35:15;2.60;99.90
31515;DHT22;40526;52.088;17.020;2024-01-30T21:40:18;2.60;99.90
31515;DHT22;40526;52.088;17.020;2024-01-30T21:50:25;2.60;99.90
31515;DHT22;40526;52.088;17.020;2024-01-30T22:05:32;2.80;99.90
31515;DHT22;40526;52.088;17.020;2024-01-30T22:10:34;2.90;99.90
31515;DHT22;40526;52.088;17.020;2024-01-30T22:20:40;3.00;99.90
31515;DHT22;40526;52.088;17.020;2024-01-30T22:25:42;3.10;99.90
31515;DHT22;40526;52.088;17.020;2024-01-30T22:30:44;3.20;99.90
31515;DHT22;40526;52.088;17.020;2024-01-30T22:35:47;3.30;99.90
31515;DHT22;40526;52.088;17.020;2024-01-30T22:45:52;3.20;99.90
31515;DHT22;40526;52.088;17.020;2024-01-30T22:50:55;3.20;99.90
31515;DHT22;40526;52.088;17.020;2024-01-30T23:00:59;3.50;99.90
31515;DHT22;40526;52.088;17.020;2024-01-30T23:06:03;3.40;99.90
31515;DHT22;40526;52.088;17.020;2024-01-30T23:16:07;3.50;99.90
31515;DHT22;40526;52.088;17.020;2024-01-30T23:21:10;3.50;99.90
31515;DHT22;40526;52.088;17.020;2024-01-30T23:26:12;3.40;99.90
31515;DHT22;40526;52.088;17.020;2024-01-30T23:31:14;3.30;99.90
31515;DHT22;40526;52.088;17.020;2024-01-30T23:36:17;3.40;99.90
31515;DHT22;40526;52.088;17.020;2024-01-30T23:41:19;3.30;99.90
31515;DHT22;40526;52.088;17.020;2024-01-30T23:46:21;3.40;99.90
31515;DHT22;40526;52.088;17.020;2024-01-30T23:51:25;3.60;99.90
31515;DHT22;40526;52.088;17.020;2024-01-30T23:56:27;3.70;99.90
